sensor_id;sensor_type;location;lat;lon;timestamp;pressure;altitude;pressure_sealevel;temperature;humidity
76728;BME280;65652;53.132;18.026;2023-01-24T00:00:47;103602.46;;;1.22;78.16
76728;BME280;65652;53.132;18.026;2023-01-24T00:03:20;103601.40;;;1.28;78.17
76728;BME280;65652;53.132;18.026;2023-01-24T00:05:48;103595.30;;;1.32;78.07
76728;BME280;65652;53.132;18.026;2023-01-24T00:08:17;103597.21;;;1.35;78.08
76728;BME280;65652;53.132;18.026;2023-01-24T00:11:00;103596.50;;;1.37;78.00
76728;BME280;65652;53.132;18.026;2023-01-24T00:13:28;103594.77;;;1.38;77.92
76728;BME280;65652;53.132;18.026;2023-01-24T00:16:06;103593.57;;;1.33;77.91
76728;BME280;65652;53.132;18.026;2023-01-24T00:18:34;103598.10;;;1.28;77.87
76728;BME280;65652;53.132;18.026;2023-01-24T00:21:06;103594.97;;;1.26;78.11
76728;BME280;65652;53.132;18.026;2023-01-24T00:23:36;103592.36;;;1.21;77.92
76728;BME280;65652;53.132;18.026;2023-01-24T00:26:03;103592.20;;;1.16;78.12
76728;BME280;65652;53.132;18.026;2023-01-24T00:28:30;103594.81;;;1.15;78.07
76728;BME280;65652;53.132;18.026;2023-01-24T00:30:57;103597.59;;;1.17;78.06
76728;BME280;65652;53.132;18.026;2023-01-24T00:33:25;103592.20;;;1.20;78.12
76728;BME280;65652;53.132;18.026;2023-01-24T00:35:52;103591.49;;;1.23;78.01
76728;BME280;65652;53.132;18.026;2023-01-24T00:38:20;103588.89;;;1.24;77.96
76728;BME280;65652;53.132;18.026;2023-01-24T00:40:48;103590.45;;;1.25;78.11
76728;BME280;65652;53.132;18.026;2023-01-24T00:43:15;103583.65;;;1.23;78.04
76728;BME280;65652;53.132;18.026;2023-01-24T00:45:44;103577.92;;;1.21;77.95
76728;BME280;65652;53.132;18.026;2023-01-24T00:48:11;103575.31;;;1.22;77.75
76728;BME280;65652;53.132;18.026;2023-01-24T00:50:40;103575.85;;;1.18;77.96
76728;BME280;65652;53.132;18.026;2023-01-24T00:53:07;103577.24;;;1.12;77.79
76728;BME280;65652;53.132;18.026;2023-01-24T00:55:40;103577.42;;;1.11;77.74
76728;BME280;65652;53.132;18.026;2023-01-24T00:58:07;103576.37;;;1.11;77.93
76728;BME280;65652;53.132;18.026;2023-01-24T01:00:34;103572.55;;;1.12;77.86
76728;BME280;65652;53.132;18.026;2023-01-24T01:03:03;103574.81;;;1.11;77.80
76728;BME280;65652;53.132;18.026;2023-01-24T01:05:30;103581.77;;;1.12;78.08
76728;BME280;65652;53.132;18.026;2023-01-24T01:07:57;103584.73;;;1.10;77.93
76728;BME280;65652;53.132;18.026;2023-01-24T01:10:24;103589.06;;;1.11;78.12
76728;BME280;65652;53.132;18.026;2023-01-24T01:12:51;103591.34;;;1.08;77.89
76728;BME280;65652;53.132;18.026;2023-01-24T01:15:18;103591.52;;;1.08;78.00
76728;BME280;65652;53.132;18.026;2023-01-24T01:17:44;103591.17;;;1.05;78.02
76728;BME280;65652;53.132;18.026;2023-01-24T01:20:11;103590.14;;;1.02;78.19
76728;BME280;65652;53.132;18.026;2023-01-24T01:22:38;103590.48;;;1.01;78.01
76728;BME280;65652;53.132;18.026;2023-01-24T01:25:05;103590.14;;;1.02;78.31
76728;BME280;65652;53.132;18.026;2023-01-24T01:27:32;103588.57;;;1.03;78.15
76728;BME280;65652;53.132;18.026;2023-01-24T01:30:00;103584.22;;;1.03;78.07
76728;BME280;65652;53.132;18.026;2023-01-24T01:32:27;103585.44;;;1.03;78.26
76728;BME280;65652;53.132;18.026;2023-01-24T01:34:54;103584.57;;;1.04;78.08
76728;BME280;65652;53.132;18.026;2023-01-24T01:37:21;103583.70;;;1.04;78.07
76728;BME280;65652;53.132;18.026;2023-01-24T01:39:48;103584.57;;;1.04;78.09
76728;BME280;65652;53.132;18.026;2023-01-24T01:42:15;103581.26;;;1.03;78.35
76728;BME280;65652;53.132;18.026;2023-01-24T01:44:43;103583.35;;;1.02;78.19
76728;BME280;65652;53.132;18.026;2023-01-24T01:47:24;103585.96;;;0.97;78.09
76728;BME280;65652;53.132;18.026;2023-01-24T01:52:24;103586.32;;;0.87;77.99
76728;BME280;65652;53.132;18.026;2023-01-24T01:54:56;103588.76;;;0.86;78.24
76728;BME280;65652;53.132;18.026;2023-01-24T01:57:27;103586.67;;;0.83;78.19
76728;BME280;65652;53.132;18.026;2023-01-24T02:00:09;103589.27;;;0.81;78.19
76728;BME280;65652;53.132;18.026;2023-01-24T02:02:43;103590.15;;;0.82;78.13
76728;BME280;65652;53.132;18.026;2023-01-24T02:05:14;103589.98;;;0.82;78.20
76728;BME280;65652;53.132;18.026;2023-01-24T02:07:54;103588.23;;;0.83;78.13
76728;BME280;65652;53.132;18.026;2023-01-24T02:10:25;103587.89;;;0.84;78.07
76728;BME280;65652;53.132;18.026;2023-01-24T02:13:13;103587.37;;;0.84;78.30
76728;BME280;65652;53.132;18.026;2023-01-24T02:15:41;103589.11;;;0.83;78.34
76728;BME280;65652;53.132;18.026;2023-01-24T02:18:34;103588.59;;;0.81;78.07
76728;BME280;65652;53.132;18.026;2023-01-24T02:21:04;103589.28;;;0.80;78.11
76728;BME280;65652;53.132;18.026;2023-01-24T02:26:27;103585.11;;;0.80;77.92
76728;BME280;65652;53.132;18.026;2023-01-24T02:28:58;103591.02;;;0.82;77.98
76728;BME280;65652;53.132;18.026;2023-01-24T02:31:27;103593.45;;;0.84;78.06
76728;BME280;65652;53.132;18.026;2023-01-24T02:33:54;103593.81;;;0.84;77.98
76728;BME280;65652;53.132;18.026;2023-01-24T02:36:32;103596.40;;;0.83;77.87
76728;BME280;65652;53.132;18.026;2023-01-24T02:39:02;103595.71;;;0.81;77.93
76728;BME280;65652;53.132;18.026;2023-01-24T02:41:42;103596.75;;;0.77;77.82
76728;BME280;65652;53.132;18.026;2023-01-24T02:44:13;103598.84;;;0.77;77.79
76728;BME280;65652;53.132;18.026;2023-01-24T02:46:44;103595.88;;;0.79;77.90
76728;BME280;65652;53.132;18.026;2023-01-24T02:49:12;103596.77;;;0.83;77.69
76728;BME280;65652;53.132;18.026;2023-01-24T02:51:39;103596.23;;;0.85;77.46
76728;BME280;65652;53.132;18.026;2023-01-24T02:54:24;103596.59;;;0.88;77.65
76728;BME280;65652;53.132;18.026;2023-01-24T02:56:51;103599.37;;;0.90;77.51
76728;BME280;65652;53.132;18.026;2023-01-24T02:59:37;103601.80;;;0.92;77.48
76728;BME280;65652;53.132;18.026;2023-01-24T03:02:04;103599.02;;;0.91;77.23
76728;BME280;65652;53.132;18.026;2023-01-24T03:04:31;103603.73;;;0.88;77.43
76728;BME280;65652;53.132;18.026;2023-01-24T03:06:58;103605.11;;;0.83;77.20
76728;BME280;65652;53.132;18.026;2023-01-24T03:09:25;103602.84;;;0.79;77.50
76728;BME280;65652;53.132;18.026;2023-01-24T03:12:05;103599.02;;;0.79;77.33
76728;BME280;65652;53.132;18.026;2023-01-24T03:14:54;103594.84;;;0.80;77.46
76728;BME280;65652;53.132;18.026;2023-01-24T03:17:39;103595.55;;;0.82;77.16
76728;BME280;65652;53.132;18.026;2023-01-24T03:20:25;103593.63;;;0.80;77.06
76728;BME280;65652;53.132;18.026;2023-01-24T03:23:10;103594.15;;;0.79;77.26
76728;BME280;65652;53.132;18.026;2023-01-24T03:25:57;103591.72;;;0.79;77.26
76728;BME280;65652;53.132;18.026;2023-01-24T03:28:43;103592.93;;;0.78;77.28
76728;BME280;65652;53.132;18.026;2023-01-24T03:31:28;103587.36;;;0.75;77.19
76728;BME280;65652;53.132;18.026;2023-01-24T03:34:14;103586.49;;;0.73;77.21
76728;BME280;65652;53.132;18.026;2023-01-24T03:37:00;103585.61;;;0.73;77.10
76728;BME280;65652;53.132;18.026;2023-01-24T03:39:27;103580.58;;;0.73;77.03
76728;BME280;65652;53.132;18.026;2023-01-24T03:42:13;103579.19;;;0.76;77.08
76728;BME280;65652;53.132;18.026;2023-01-24T03:44:40;103585.45;;;0.78;77.00
76728;BME280;65652;53.132;18.026;2023-01-24T03:47:07;103585.80;;;0.82;76.86
76728;BME280;65652;53.132;18.026;2023-01-24T03:49:34;103580.58;;;0.82;76.98
76728;BME280;65652;53.132;18.026;2023-01-24T03:52:19;103575.89;;;0.84;76.84
76728;BME280;65652;53.132;18.026;2023-01-24T03:54:59;103570.14;;;0.83;76.91
76728;BME280;65652;53.132;18.026;2023-01-24T03:57:27;103564.23;;;0.84;77.02
76728;BME280;65652;53.132;18.026;2023-01-24T03:59:55;103562.14;;;0.82;76.86
76728;BME280;65652;53.132;18.026;2023-01-24T04:02:22;103562.84;;;0.78;76.78
76728;BME280;65652;53.132;18.026;2023-01-24T04:04:49;103561.27;;;0.76;76.96
76728;BME280;65652;53.132;18.026;2023-01-24T04:07:35;103562.67;;;0.76;76.89
76728;BME280;65652;53.132;18.026;2023-01-24T04:10:04;103564.58;;;0.78;77.01
76728;BME280;65652;53.132;18.026;2023-01-24T04:12:36;103566.84;;;0.82;76.99
76728;BME280;65652;53.132;18.026;2023-01-24T04:15:04;103567.19;;;0.86;77.08
76728;BME280;65652;53.132;18.026;2023-01-24T04:17:31;103568.23;;;0.88;76.88
76728;BME280;65652;53.132;18.026;2023-01-24T04:19:58;103570.50;;;0.89;77.11
76728;BME280;65652;53.132;18.026;2023-01-24T04:22:25;103570.83;;;0.92;76.98
76728;BME280;65652;53.132;18.026;2023-01-24T04:24:53;103572.05;;;0.93;76.97
76728;BME280;65652;53.132;18.026;2023-01-24T04:27:22;103569.79;;;0.93;77.02
76728;BME280;65652;53.132;18.026;2023-01-24T04:30:21;103574.15;;;0.90;76.77
76728;BME280;65652;53.132;18.026;2023-01-24T04:32:50;103574.14;;;0.87;76.96
76728;BME280;65652;53.132;18.026;2023-01-24T04:35:25;103576.39;;;0.83;77.01
76728;BME280;65652;53.132;18.026;2023-01-24T04:37:59;103580.06;;;0.82;76.92
76728;BME280;65652;53.132;18.026;2023-01-24T04:40:35;103580.75;;;0.85;77.09
76728;BME280;65652;53.132;18.026;2023-01-24T04:43:02;103580.75;;;0.87;76.95
76728;BME280;65652;53.132;18.026;2023-01-24T04:45:29;103578.66;;;0.90;77.14
76728;BME280;65652;53.132;18.026;2023-01-24T04:47:57;103576.39;;;0.93;77.01
76728;BME280;65652;53.132;18.026;2023-01-24T04:50:24;103574.31;;;0.97;76.93
76728;BME280;65652;53.132;18.026;2023-01-24T04:52:51;103572.22;;;0.98;77.13
76728;BME280;65652;53.132;18.026;2023-01-24T04:55:18;103576.04;;;0.97;77.08
76728;BME280;65652;53.132;18.026;2023-01-24T04:57:45;103573.79;;;0.95;76.85
76728;BME280;65652;53.132;18.026;2023-01-24T05:00:12;103571.52;;;0.93;77.16
76728;BME280;65652;53.132;18.026;2023-01-24T05:02:39;103575.71;;;0.91;77.09
76728;BME280;65652;53.132;18.026;2023-01-24T05:05:07;103575.54;;;0.89;77.10
76728;BME280;65652;53.132;18.026;2023-01-24T05:07:34;103576.58;;;0.85;77.06
76728;BME280;65652;53.132;18.026;2023-01-24T05:10:06;103575.72;;;0.83;77.13
76728;BME280;65652;53.132;18.026;2023-01-24T05:12:33;103578.68;;;0.82;77.11
76728;BME280;65652;53.132;18.026;2023-01-24T05:15:04;103584.75;;;0.83;77.17
76728;BME280;65652;53.132;18.026;2023-01-24T05:17:32;103586.48;;;0.87;77.27
76728;BME280;65652;53.132;18.026;2023-01-24T05:19:59;103588.58;;;0.91;77.29
76728;BME280;65652;53.132;18.026;2023-01-24T05:22:28;103592.92;;;0.95;77.18
76728;BME280;65652;53.132;18.026;2023-01-24T05:24:55;103592.75;;;0.98;77.24
76728;BME280;65652;53.132;18.026;2023-01-24T05:27:21;103599.19;;;1.00;77.02
76728;BME280;65652;53.132;18.026;2023-01-24T05:29:54;103598.66;;;0.98;77.11
76728;BME280;65652;53.132;18.026;2023-01-24T05:32:21;103593.63;;;0.97;77.06
76728;BME280;65652;53.132;18.026;2023-01-24T05:34:48;103596.92;;;0.95;76.96
76728;BME280;65652;53.132;18.026;2023-01-24T05:37:15;103597.79;;;0.92;76.84
76728;BME280;65652;53.132;18.026;2023-01-24T05:39:43;103593.63;;;0.89;77.13
76728;BME280;65652;53.132;18.026;2023-01-24T05:42:10;103591.71;;;0.88;77.13
76728;BME280;65652;53.132;18.026;2023-01-24T05:44:44;103588.58;;;0.87;76.93
76728;BME280;65652;53.132;18.026;2023-01-24T05:47:12;103591.52;;;0.88;77.02
76728;BME280;65652;53.132;18.026;2023-01-24T05:49:41;103594.84;;;0.91;77.18
76728;BME280;65652;53.132;18.026;2023-01-24T05:52:08;103600.41;;;0.94;76.94
76728;BME280;65652;53.132;18.026;2023-01-24T05:54:55;103604.23;;;0.96;76.99
76728;BME280;65652;53.132;18.026;2023-01-24T05:57:25;103607.00;;;1.01;77.05
76728;BME280;65652;53.132;18.026;2023-01-24T06:00:24;103606.48;;;1.06;77.19
76728;BME280;65652;53.132;18.026;2023-01-24T06:03:11;103606.66;;;1.07;77.11
76728;BME280;65652;53.132;18.026;2023-01-24T06:05:38;103608.92;;;1.04;77.00
76728;BME280;65652;53.132;18.026;2023-01-24T06:08:05;103613.63;;;1.01;77.08
76728;BME280;65652;53.132;18.026;2023-01-24T06:10:33;103609.62;;;0.98;77.07
76728;BME280;65652;53.132;18.026;2023-01-24T06:13:03;103611.54;;;0.95;77.13
76728;BME280;65652;53.132;18.026;2023-01-24T06:15:30;103613.63;;;0.92;77.15
76728;BME280;65652;53.132;18.026;2023-01-24T06:17:57;103618.84;;;0.91;76.97
76728;BME280;65652;53.132;18.026;2023-01-24T06:20:24;103619.19;;;0.93;77.00
76728;BME280;65652;53.132;18.026;2023-01-24T06:22:53;103617.63;;;0.95;77.22
76728;BME280;65652;53.132;18.026;2023-01-24T06:25:24;103615.20;;;1.00;77.28
76728;BME280;65652;53.132;18.026;2023-01-24T06:27:52;103623.71;;;1.06;77.06
76728;BME280;65652;53.132;18.026;2023-01-24T06:30:19;103630.67;;;1.10;77.17
76728;BME280;65652;53.132;18.026;2023-01-24T06:32:54;103627.71;;;1.14;77.20
76728;BME280;65652;53.132;18.026;2023-01-24T06:35:51;103629.45;;;1.17;77.04
76728;BME280;65652;53.132;18.026;2023-01-24T06:38:22;103628.92;;;1.13;76.82
76728;BME280;65652;53.132;18.026;2023-01-24T06:40:56;103632.06;;;1.06;76.91
76728;BME280;65652;53.132;18.026;2023-01-24T06:43:24;103636.07;;;1.01;76.91
76728;BME280;65652;53.132;18.026;2023-01-24T06:45:51;103637.80;;;0.97;76.89
76728;BME280;65652;53.132;18.026;2023-01-24T06:48:18;103641.29;;;0.94;76.90
76728;BME280;65652;53.132;18.026;2023-01-24T06:50:45;103642.67;;;0.91;77.06
76728;BME280;65652;53.132;18.026;2023-01-24T06:53:12;103649.30;;;0.93;76.98
76728;BME280;65652;53.132;18.026;2023-01-24T06:55:44;103651.89;;;0.98;77.33
76728;BME280;65652;53.132;18.026;2023-01-24T06:58:12;103653.11;;;1.04;77.19
76728;BME280;65652;53.132;18.026;2023-01-24T07:00:38;103658.85;;;1.11;77.37
76728;BME280;65652;53.132;18.026;2023-01-24T07:03:06;103662.67;;;1.16;76.97
76728;BME280;65652;53.132;18.026;2023-01-24T07:05:35;103666.51;;;1.13;76.79
76728;BME280;65652;53.132;18.026;2023-01-24T07:08:04;103663.38;;;1.10;76.89
76728;BME280;65652;53.132;18.026;2023-01-24T07:10:31;103662.85;;;1.08;76.77
76728;BME280;65652;53.132;18.026;2023-01-24T07:12:58;103664.26;;;1.05;76.65
76728;BME280;65652;53.132;18.026;2023-01-24T07:15:26;103660.77;;;0.99;76.43
76728;BME280;65652;53.132;18.026;2023-01-24T07:17:53;103658.52;;;0.96;76.69
76728;BME280;65652;53.132;18.026;2023-01-24T07:20:20;103664.43;;;0.96;76.57
76728;BME280;65652;53.132;18.026;2023-01-24T07:22:47;103663.73;;;0.97;76.61
76728;BME280;65652;53.132;18.026;2023-01-24T07:25:17;103657.81;;;1.02;76.80
76728;BME280;65652;53.132;18.026;2023-01-24T07:27:45;103654.68;;;1.05;76.64
76728;BME280;65652;53.132;18.026;2023-01-24T07:30:13;103651.90;;;1.07;76.59
76728;BME280;65652;53.132;18.026;2023-01-24T07:32:40;103653.98;;;1.11;76.67
76728;BME280;65652;53.132;18.026;2023-01-24T07:35:07;103656.95;;;1.15;76.62
76728;BME280;65652;53.132;18.026;2023-01-24T07:37:34;103652.60;;;1.14;76.25
76728;BME280;65652;53.132;18.026;2023-01-24T07:40:02;103649.27;;;1.12;75.95
76728;BME280;65652;53.132;18.026;2023-01-24T07:42:29;103647.02;;;1.07;76.24
76728;BME280;65652;53.132;18.026;2023-01-24T07:44:56;103645.10;;;1.03;76.09
76728;BME280;65652;53.132;18.026;2023-01-24T07:47:23;103649.29;;;0.96;75.80
76728;BME280;65652;53.132;18.026;2023-01-24T07:49:52;103644.94;;;0.93;75.87
76728;BME280;65652;53.132;18.026;2023-01-24T07:52:19;103641.46;;;0.94;75.87
76728;BME280;65652;53.132;18.026;2023-01-24T07:54:46;103649.64;;;0.95;75.64
76728;BME280;65652;53.132;18.026;2023-01-24T07:57:13;103653.80;;;0.95;75.89
76728;BME280;65652;53.132;18.026;2023-01-24T07:59:42;103648.24;;;0.97;75.86
76728;BME280;65652;53.132;18.026;2023-01-24T08:02:10;103653.46;;;0.98;75.90
76728;BME280;65652;53.132;18.026;2023-01-24T08:04:37;103659.20;;;1.02;75.92
76728;BME280;65652;53.132;18.026;2023-01-24T08:07:04;103655.02;;;1.05;75.81
76728;BME280;65652;53.132;18.026;2023-01-24T08:09:47;103656.42;;;1.05;75.95
76728;BME280;65652;53.132;18.026;2023-01-24T08:12:15;103660.44;;;1.04;75.87
76728;BME280;65652;53.132;18.026;2023-01-24T08:14:42;103662.69;;;1.02;75.75
76728;BME280;65652;53.132;18.026;2023-01-24T08:17:09;103665.63;;;1.01;75.67
76728;BME280;65652;53.132;18.026;2023-01-24T08:19:36;103667.73;;;1.00;75.55
76728;BME280;65652;53.132;18.026;2023-01-24T08:22:04;103675.20;;;0.98;75.61
76728;BME280;65652;53.132;18.026;2023-01-24T08:24:32;103683.73;;;1.00;75.52
76728;BME280;65652;53.132;18.026;2023-01-24T08:27:00;103684.77;;;1.04;75.69
76728;BME280;65652;53.132;18.026;2023-01-24T08:29:27;103686.16;;;1.09;75.52
76728;BME280;65652;53.132;18.026;2023-01-24T08:31:55;103685.99;;;1.12;75.37
76728;BME280;65652;53.132;18.026;2023-01-24T08:34:22;103684.95;;;1.16;75.68
76728;BME280;65652;53.132;18.026;2023-01-24T08:36:49;103688.09;;;1.21;75.65
76728;BME280;65652;53.132;18.026;2023-01-24T08:39:15;103692.27;;;1.25;75.58
76728;BME280;65652;53.132;18.026;2023-01-24T08:41:42;103693.48;;;1.27;75.53
76728;BME280;65652;53.132;18.026;2023-01-24T08:44:13;103696.44;;;1.28;75.47
76728;BME280;65652;53.132;18.026;2023-01-24T08:46:40;103701.14;;;1.30;75.60
76728;BME280;65652;53.132;18.026;2023-01-24T08:49:10;103700.98;;;1.29;75.37
76728;BME280;65652;53.132;18.026;2023-01-24T08:51:37;103706.01;;;1.28;75.14
76728;BME280;65652;53.132;18.026;2023-01-24T08:54:05;103708.09;;;1.21;75.15
76728;BME280;65652;53.132;18.026;2023-01-24T08:56:33;103708.11;;;1.20;75.01
76728;BME280;65652;53.132;18.026;2023-01-24T08:59:00;103705.67;;;1.18;75.12
76728;BME280;65652;53.132;18.026;2023-01-24T09:01:27;103704.63;;;1.21;75.28
76728;BME280;65652;53.132;18.026;2023-01-24T09:03:53;103707.77;;;1.25;75.03
76728;BME280;65652;53.132;18.026;2023-01-24T09:06:22;103708.62;;;1.31;75.37
76728;BME280;65652;53.132;18.026;2023-01-24T09:08:52;103708.80;;;1.37;75.20
76728;BME280;65652;53.132;18.026;2023-01-24T09:11:20;103711.39;;;1.44;74.94
76728;BME280;65652;53.132;18.026;2023-01-24T09:13:47;103708.08;;;1.48;74.88
76728;BME280;65652;53.132;18.026;2023-01-24T09:16:14;103714.35;;;1.49;74.81
76728;BME280;65652;53.132;18.026;2023-01-24T09:18:41;103715.91;;;1.49;74.73
76728;BME280;65652;53.132;18.026;2023-01-24T09:21:08;103715.40;;;1.48;74.58
76728;BME280;65652;53.132;18.026;2023-01-24T09:23:35;103716.96;;;1.48;74.39
76728;BME280;65652;53.132;18.026;2023-01-24T09:26:03;103713.47;;;1.47;74.53
76728;BME280;65652;53.132;18.026;2023-01-24T09:28:30;103716.61;;;1.47;74.54
76728;BME280;65652;53.132;18.026;2023-01-24T09:30:57;103714.88;;;1.46;74.44
76728;BME280;65652;53.132;18.026;2023-01-24T09:33:24;103712.08;;;1.50;74.49
76728;BME280;65652;53.132;18.026;2023-01-24T09:35:53;103716.09;;;1.54;74.27
76728;BME280;65652;53.132;18.026;2023-01-24T09:38:20;103707.73;;;1.59;74.23
76728;BME280;65652;53.132;18.026;2023-01-24T09:49:21;103709.63;;;1.69;73.75
76728;BME280;65652;53.132;18.026;2023-01-24T09:51:51;103701.09;;;1.71;73.86
76728;BME280;65652;53.132;18.026;2023-01-24T09:54:55;103705.61;;;1.72;73.85
76728;BME280;65652;53.132;18.026;2023-01-24T09:57:27;103706.31;;;1.70;73.47
76728;BME280;65652;53.132;18.026;2023-01-24T10:00:04;103708.06;;;1.63;73.54
